createdAt,value
2023-11-25T00:00:14.788Z,83.89
2023-11-25T00:03:10.962Z,83.79
2023-11-25T00:05:58.785Z,83.87
2023-11-25T00:08:39.913Z,83.70
2023-11-25T00:11:28.148Z,83.67
2023-11-25T00:14:10.963Z,83.63
2023-11-25T00:16:51.839Z,83.64
2023-11-25T00:19:32.952Z,83.52
2023-11-25T00:22:13.792Z,83.43
2023-11-25T00:24:54.965Z,83.23
2023-11-25T00:27:37.786Z,83.20
2023-11-25T00:30:20.320Z,83.29
2023-11-25T00:33:02.876Z,83.16
2023-11-25T00:35:44.296Z,83.01
2023-11-25T00:38:25.771Z,83.14
2023-11-25T00:41:06.924Z,83.33
2023-11-25T00:43:47.822Z,83.51
2023-11-25T00:46:29.277Z,83.63
2023-11-25T00:49:12.804Z,83.74
2023-11-25T00:51:53.931Z,83.81
2023-11-25T00:54:35.752Z,83.84
2023-11-25T00:57:16.954Z,84.07
2023-11-25T01:00:04.748Z,84.19
2023-11-25T01:02:46.995Z,84.41
2023-11-25T01:05:41.847Z,84.48
2023-11-25T01:08:36.805Z,84.53
2023-11-25T01:11:24.773Z,84.52
2023-11-25T01:13:59.892Z,84.51
2023-11-25T01:16:47.905Z,84.47
2023-11-25T01:19:22.921Z,84.40
2023-11-25T01:22:11.822Z,84.31
2023-11-25T01:24:55.758Z,84.29
2023-11-25T01:27:43.794Z,84.05
2023-11-25T01:30:21.337Z,83.96
2023-11-25T01:33:13.770Z,83.88
2023-11-25T01:35:48.911Z,83.84
2023-11-25T01:38:36.777Z,83.77
2023-11-25T01:41:11.905Z,83.79
2023-11-25T01:44:02.779Z,83.74
2023-11-25T01:46:48.515Z,83.78
2023-11-25T01:49:43.788Z,83.75
2023-11-25T01:52:32.769Z,83.78
2023-11-25T01:55:16.792Z,83.68
2023-11-25T01:58:11.778Z,83.51
2023-11-25T02:00:59.808Z,83.40
2023-11-25T02:03:34.975Z,83.22
2023-11-25T02:06:22.900Z,83.31
2023-11-25T02:08:57.924Z,83.36
2023-11-25T02:12:05.748Z,83.63
2023-11-25T02:14:40.988Z,83.86
2023-11-25T02:17:28.787Z,83.84
2023-11-25T02:20:06.205Z,83.89
2023-11-25T02:23:07.807Z,83.93
2023-11-25T02:25:49.752Z,83.93
2023-11-25T02:28:44.778Z,84.06
2023-11-25T02:31:32.800Z,84.31
2023-11-25T02:34:14.800Z,84.72
2023-11-25T02:37:03.758Z,85.11
2023-11-25T02:39:39.048Z,85.63
2023-11-25T02:42:27.765Z,86.31
2023-11-25T02:45:09.754Z,86.47
2023-11-25T02:48:04.829Z,86.81
2023-11-25T02:51:00.750Z,87.10
2023-11-25T02:53:48.740Z,86.94
2023-11-25T02:56:23.877Z,87.03
2023-11-25T02:59:11.744Z,87.25
2023-11-25T03:01:50.723Z,87.26
2023-11-25T03:04:40.750Z,87.26
2023-11-25T03:07:16.901Z,87.00
2023-11-25T03:10:04.757Z,86.79
2023-11-25T03:12:51.514Z,86.55
2023-11-25T03:15:46.833Z,86.38
2023-11-25T03:18:34.758Z,86.31
2023-11-25T03:21:11.380Z,86.14
2023-11-25T03:23:59.720Z,86.13
2023-11-25T03:26:34.882Z,86.07
2023-11-25T03:29:22.731Z,86.10
2023-11-25T03:32:04.761Z,86.12
2023-11-25T03:34:45.783Z,86.06
2023-11-25T03:37:27.022Z,86.00
2023-11-25T03:40:08.963Z,86.00
2023-11-25T03:42:50.857Z,86.04
2023-11-25T03:45:31.746Z,85.93
2023-11-25T03:48:19.728Z,85.92
2023-11-25T03:51:00.764Z,86.02
2023-11-25T03:53:48.794Z,86.19
2023-11-25T03:56:23.141Z,86.17
2023-11-25T03:59:10.728Z,86.34
2023-11-25T04:01:46.038Z,86.19
2023-11-25T04:04:33.799Z,86.03
2023-11-25T04:07:08.357Z,85.95
2023-11-25T04:09:56.773Z,86.06
2023-11-25T04:12:31.168Z,86.11
2023-11-25T04:15:19.713Z,86.22
2023-11-25T04:17:55.334Z,86.35
2023-11-25T04:20:43.761Z,86.57
2023-11-25T04:23:19.617Z,86.75
2023-11-25T04:26:07.843Z,87.12
2023-11-25T04:28:43.428Z,87.13
2023-11-25T04:31:32.747Z,87.34
2023-11-25T04:34:07.286Z,87.36
2023-11-25T04:36:55.829Z,87.41
2023-11-25T04:39:36.802Z,87.47
2023-11-25T04:42:17.842Z,87.45
2023-11-25T04:44:58.746Z,87.12
2023-11-25T04:47:40.080Z,86.96
2023-11-25T04:50:22.740Z,87.07
2023-11-25T04:53:10.723Z,86.88
2023-11-25T04:55:51.745Z,86.69
2023-11-25T04:58:39.815Z,86.54
2023-11-25T05:01:14.793Z,86.42
2023-11-25T05:04:02.727Z,86.64
2023-11-25T05:06:37.891Z,86.74
2023-11-25T05:09:26.750Z,86.87
2023-11-25T05:12:01.178Z,87.16
2023-11-25T05:14:48.811Z,87.33
2023-11-25T05:17:29.818Z,87.13
2023-11-25T05:20:17.919Z,87.19
2023-11-25T05:22:59.724Z,87.23
2023-11-25T05:25:47.790Z,87.54
2023-11-25T05:28:23.648Z,87.51
2023-11-25T05:31:11.783Z,87.33
2023-11-25T05:33:52.714Z,87.48
2023-11-25T05:36:34.277Z,87.38
2023-11-25T05:39:22.691Z,87.16
2023-11-25T05:41:56.880Z,87.19
2023-11-25T05:44:44.715Z,86.76
2023-11-25T05:47:19.844Z,85.87
2023-11-25T05:50:07.781Z,84.94
2023-11-25T05:52:43.073Z,84.79
2023-11-25T05:55:30.791Z,85.02
2023-11-25T05:58:05.857Z,84.86
2023-11-25T06:00:53.835Z,84.58
2023-11-25T06:03:35.990Z,83.51
2023-11-25T06:06:31.702Z,83.04
2023-11-25T06:09:19.727Z,83.38
2023-11-25T06:11:55.051Z,83.23
2023-11-25T06:14:44.807Z,82.73
2023-11-25T06:17:32.786Z,82.59
2023-11-25T06:20:08.377Z,82.68
2023-11-25T06:22:57.703Z,82.52
2023-11-25T06:25:32.101Z,82.39
2023-11-25T06:28:20.754Z,81.89
2023-11-25T06:31:04.777Z,81.77
2023-11-25T06:33:47.881Z,81.95
2023-11-25T06:36:28.725Z,82.04
2023-11-25T06:39:12.540Z,81.92
2023-11-25T06:41:56.732Z,81.80
2023-11-25T06:44:44.684Z,81.88
2023-11-25T06:47:25.835Z,81.75
2023-11-25T06:50:20.685Z,81.96
2023-11-25T06:53:08.668Z,81.96
2023-11-25T06:55:52.816Z,81.32
2023-11-25T06:58:47.791Z,80.39
2023-11-25T07:01:35.803Z,79.29
2023-11-25T07:04:17.696Z,78.82
2023-11-25T07:07:05.710Z,77.95
2023-11-25T07:09:48.731Z,77.73
2023-11-25T07:12:43.761Z,77.71
2023-11-25T07:15:31.833Z,77.91
2023-11-25T07:18:08.207Z,77.64
2023-11-25T07:20:56.789Z,76.94
2023-11-25T07:23:31.809Z,76.54
2023-11-25T07:26:22.699Z,76.43
2023-11-25T07:28:57.848Z,76.07
2023-11-25T07:31:45.679Z,75.03
2023-11-25T07:34:26.923Z,74.68
2023-11-25T07:37:08.812Z,74.52
2023-11-25T07:39:50.369Z,74.49
2023-11-25T07:42:31.684Z,74.20
2023-11-25T07:45:13.862Z,74.53
2023-11-25T07:47:55.823Z,74.09
2023-11-25T07:50:47.045Z,73.80
2023-11-25T07:53:44.689Z,73.25
2023-11-25T07:56:32.693Z,73.54
2023-11-25T07:59:08.420Z,72.86
2023-11-25T08:01:56.746Z,72.72
2023-11-25T08:04:31.822Z,72.67
2023-11-25T08:07:19.709Z,72.22
2023-11-25T08:10:01.816Z,72.73
2023-11-25T08:12:58.501Z,72.96
2023-11-25T08:15:48.690Z,72.48
2023-11-25T08:18:24.748Z,72.41
2023-11-25T08:21:12.685Z,72.45
2023-11-25T08:23:47.865Z,72.32
2023-11-25T08:26:36.687Z,72.42
2023-11-25T08:29:19.749Z,72.56
2023-11-25T08:32:15.824Z,72.93
2023-11-25T08:35:03.764Z,72.59
2023-11-25T08:37:40.605Z,72.14
2023-11-25T08:40:29.704Z,72.52
2023-11-25T08:43:10.160Z,72.33
2023-11-25T08:46:02.641Z,72.27
2023-11-25T08:48:38.308Z,71.61
2023-11-25T08:51:26.680Z,71.57
2023-11-25T08:54:01.857Z,71.10
2023-11-25T08:56:52.697Z,70.13
2023-11-25T08:59:34.591Z,70.00
2023-11-25T09:02:21.454Z,69.34
2023-11-25T09:05:09.346Z,69.05
2023-11-25T09:07:54.094Z,68.34
2023-11-25T09:10:36.506Z,68.53
2023-11-25T09:13:19.229Z,68.49
2023-11-25T09:16:07.704Z,67.60
2023-11-25T09:18:50.326Z,67.32
2023-11-25T09:21:31.778Z,66.53
2023-11-25T09:24:13.670Z,66.25
2023-11-25T09:27:02.674Z,66.24
2023-11-25T09:29:44.697Z,66.07
2023-11-25T09:32:35.693Z,66.34
2023-11-25T09:35:20.676Z,66.37
2023-11-25T09:38:08.689Z,66.31
2023-11-25T09:40:43.128Z,66.52
2023-11-25T09:43:31.950Z,66.82
2023-11-25T09:46:22.020Z,66.34
2023-11-25T09:49:10.049Z,66.33
2023-11-25T09:51:52.084Z,66.48
2023-11-25T09:54:46.665Z,66.57
2023-11-25T09:57:40.666Z,66.57
2023-11-25T10:00:19.661Z,66.75
2023-11-25T10:03:09.876Z,67.61
2023-11-25T10:05:44.984Z,68.00
2023-11-25T10:08:34.092Z,67.68
2023-11-25T10:11:16.157Z,67.66
2023-11-25T10:14:03.727Z,67.41
2023-11-25T10:16:38.970Z,67.27
2023-11-25T10:19:30.692Z,67.25
2023-11-25T10:22:12.681Z,67.08
2023-11-25T10:25:01.653Z,67.18
2023-11-25T10:27:36.785Z,67.32
2023-11-25T10:30:24.678Z,67.19
2023-11-25T10:33:09.655Z,67.31
2023-11-25T10:35:58.654Z,67.33
2023-11-25T10:38:41.700Z,67.34
2023-11-25T10:41:36.671Z,67.02
2023-11-25T10:44:25.658Z,66.99
2023-11-25T10:47:01.437Z,66.45
2023-11-25T10:49:52.044Z,65.98
2023-11-25T10:52:50.061Z,65.54
2023-11-25T10:55:40.703Z,65.66
2023-11-25T10:58:23.672Z,66.05
2023-11-25T11:01:11.717Z,64.81
2023-11-25T11:04:04.156Z,64.79
2023-11-25T11:06:56.693Z,64.98
2023-11-25T11:09:38.849Z,65.38
2023-11-25T11:12:46.641Z,64.96
2023-11-25T11:15:30.657Z,65.11
2023-11-25T11:18:34.696Z,65.27
2023-11-25T11:21:22.670Z,64.72
2023-11-25T11:23:57.815Z,64.51
2023-11-25T11:27:21.703Z,63.46
2023-11-25T11:30:01.828Z,62.81
2023-11-25T11:32:56.160Z,62.46
2023-11-25T11:35:45.044Z,63.53
2023-11-25T11:38:36.661Z,63.67
2023-11-25T11:41:24.238Z,64.20
2023-11-25T11:44:23.685Z,64.33
2023-11-25T11:47:12.667Z,64.38
2023-11-25T11:49:47.990Z,63.75
2023-11-25T11:52:35.629Z,64.11
2023-11-25T11:55:55.771Z,64.02
2023-11-25T11:58:50.655Z,64.00
2023-11-25T12:01:38.744Z,64.47
2023-11-25T12:04:13.803Z,64.27
2023-11-25T12:07:03.674Z,64.13
2023-11-25T12:09:45.989Z,64.50
2023-11-25T12:12:42.646Z,64.90
2023-11-25T12:15:38.647Z,64.83
2023-11-25T12:18:26.633Z,65.71
2023-11-25T12:21:07.886Z,67.48
2023-11-25T12:23:55.635Z,69.27
2023-11-25T12:26:37.517Z,70.44
2023-11-25T12:29:27.628Z,71.39
2023-11-25T12:32:02.901Z,72.36
2023-11-25T12:34:52.659Z,72.91
2023-11-25T12:37:29.753Z,73.27
2023-11-25T12:40:26.682Z,73.76
2023-11-25T12:43:10.646Z,73.88
2023-11-25T12:46:06.257Z,74.03
2023-11-25T12:48:54.640Z,73.98
2023-11-25T12:51:36.659Z,73.75
2023-11-25T12:54:24.993Z,73.67
2023-11-25T12:57:09.073Z,73.40
2023-11-25T13:00:05.276Z,73.14
2023-11-25T13:02:56.969Z,72.69
2023-11-25T13:05:32.376Z,72.47
2023-11-25T13:08:30.628Z,72.26
2023-11-25T13:11:09.987Z,71.74
2023-11-25T13:13:57.685Z,71.25
2023-11-25T13:16:39.717Z,70.96
2023-11-25T13:19:29.636Z,71.07
2023-11-25T13:22:04.763Z,70.63
2023-11-25T13:24:53.644Z,70.08
2023-11-25T13:27:28.751Z,68.79
2023-11-25T13:30:18.646Z,67.38
2023-11-25T13:33:02.002Z,66.88
2023-11-25T13:35:46.974Z,66.17
2023-11-25T13:38:29.174Z,65.51
2023-11-25T13:41:16.880Z,65.64
2023-11-25T13:43:52.782Z,65.29
2023-11-25T13:46:40.724Z,65.17
2023-11-25T13:49:22.619Z,65.65
2023-11-25T13:52:10.766Z,66.53
2023-11-25T13:54:51.610Z,67.17
2023-11-25T13:57:32.744Z,67.75
2023-11-25T14:00:17.625Z,68.29
2023-11-25T14:03:01.333Z,68.91
2023-11-25T14:05:49.621Z,69.51
2023-11-25T14:08:30.756Z,70.05
2023-11-25T14:11:14.646Z,70.63
2023-11-25T14:13:57.735Z,70.96
2023-11-25T14:16:40.146Z,71.21
2023-11-25T14:19:22.788Z,71.08
2023-11-25T14:22:03.604Z,71.28
2023-11-25T14:24:44.795Z,71.82
2023-11-25T14:27:25.624Z,71.95
2023-11-25T14:30:07.890Z,72.05
2023-11-25T14:32:48.964Z,72.26
2023-11-25T14:35:39.108Z,72.43
2023-11-25T14:38:13.987Z,72.39
2023-11-25T14:41:01.688Z,72.64
2023-11-25T14:43:43.450Z,72.99
2023-11-25T14:46:24.706Z,73.33
2023-11-25T14:49:06.421Z,73.43
2023-11-25T14:51:48.626Z,73.54
2023-11-25T14:54:30.953Z,73.75
2023-11-25T14:57:14.654Z,74.01
2023-11-25T14:59:55.810Z,74.22
2023-11-25T15:02:37.096Z,74.30
2023-11-25T15:05:18.972Z,74.41
2023-11-25T15:08:01.645Z,74.53
2023-11-25T15:10:51.667Z,74.68
2023-11-25T15:13:35.613Z,74.91
2023-11-25T15:16:28.635Z,75.03
2023-11-25T15:19:23.610Z,75.33
2023-11-25T15:22:12.615Z,75.54
2023-11-25T15:24:55.612Z,75.61
2023-11-25T15:27:43.635Z,75.63
2023-11-25T15:30:26.627Z,75.53
2023-11-25T15:33:09.008Z,75.48
2023-11-25T15:35:58.615Z,75.31
2023-11-25T15:38:39.618Z,75.20
2023-11-25T15:41:20.803Z,75.10
2023-11-25T15:44:09.828Z,75.08
2023-11-25T15:46:45.663Z,74.84
2023-11-25T15:49:33.634Z,74.75
2023-11-25T15:52:08.893Z,74.64
2023-11-25T15:54:57.670Z,74.47
2023-11-25T15:57:40.690Z,74.17
2023-11-25T16:00:35.630Z,74.06
2023-11-25T16:03:24.759Z,74.40
2023-11-25T16:06:00.237Z,74.56
2023-11-25T16:08:48.610Z,74.83
2023-11-25T16:11:24.995Z,74.87
2023-11-25T16:14:12.917Z,75.05
2023-11-25T16:16:49.525Z,75.13
2023-11-25T16:19:37.765Z,75.27
2023-11-25T16:22:25.787Z,75.42
2023-11-25T16:25:07.707Z,75.67
2023-11-25T16:27:59.613Z,75.84
2023-11-25T16:30:35.497Z,75.98
2023-11-25T16:33:24.644Z,76.10
2023-11-25T16:36:19.594Z,76.11
2023-11-25T16:39:07.599Z,76.20
2023-11-25T16:41:43.496Z,76.35
2023-11-25T16:44:31.591Z,76.31
2023-11-25T16:47:07.818Z,76.32
2023-11-25T16:49:56.161Z,76.44
2023-11-25T16:52:38.700Z,76.56
2023-11-25T16:55:33.639Z,76.63
2023-11-25T16:58:21.621Z,76.80
2023-11-25T17:00:57.828Z,77.07
2023-11-25T17:03:46.524Z,77.28
2023-11-25T17:06:21.749Z,77.50
2023-11-25T17:09:09.603Z,77.93
2023-11-25T17:11:49.766Z,78.07
2023-11-25T17:14:37.610Z,78.23
2023-11-25T17:17:14.422Z,78.31
2023-11-25T17:20:04.655Z,78.42
2023-11-25T17:22:45.785Z,78.61
2023-11-25T17:25:33.937Z,78.83
2023-11-25T17:28:18.055Z,78.79
2023-11-25T17:31:12.701Z,78.78
2023-11-25T17:34:01.616Z,78.96
2023-11-25T17:36:36.726Z,78.98
2023-11-25T17:39:25.616Z,79.25
2023-11-25T17:42:00.731Z,79.20
2023-11-25T17:44:48.684Z,79.29
2023-11-25T17:47:23.794Z,79.33
2023-11-25T17:50:18.172Z,79.31
2023-11-25T17:53:06.557Z,79.22
2023-11-25T17:55:59.699Z,79.38
2023-11-25T17:58:35.885Z,79.49
2023-11-25T18:01:23.593Z,79.60
2023-11-25T18:03:58.826Z,79.45
2023-11-25T18:06:46.599Z,79.40
2023-11-25T18:09:22.445Z,79.34
2023-11-25T18:12:16.753Z,79.28
2023-11-25T18:14:51.883Z,79.10
2023-11-25T18:17:39.940Z,79.12
2023-11-25T18:20:22.591Z,79.03
2023-11-25T18:23:04.040Z,78.86
2023-11-25T18:25:52.651Z,78.64
2023-11-25T18:28:33.595Z,78.66
2023-11-25T18:31:18.226Z,78.46
2023-11-25T18:33:59.587Z,78.36
2023-11-25T18:36:41.710Z,78.33
2023-11-25T18:39:29.606Z,78.41
2023-11-25T18:42:05.219Z,78.36
2023-11-25T18:44:54.602Z,78.25
2023-11-25T18:47:29.871Z,78.18
2023-11-25T18:50:17.678Z,78.17
2023-11-25T18:52:52.889Z,78.34
2023-11-25T18:55:41.117Z,78.20
2023-11-25T18:58:15.757Z,78.33
2023-11-25T19:01:03.636Z,78.09
2023-11-25T19:03:45.683Z,78.32
2023-11-25T19:06:40.848Z,78.26
2023-11-25T19:09:28.592Z,78.35
2023-11-25T19:12:04.977Z,78.45
2023-11-25T19:14:53.578Z,78.44
2023-11-25T19:17:31.226Z,78.33
2023-11-25T19:20:21.671Z,78.36
2023-11-25T19:22:56.779Z,78.38
2023-11-25T19:25:44.632Z,78.41
2023-11-25T19:28:22.994Z,78.39
2023-11-25T19:31:12.603Z,78.35
2023-11-25T19:33:48.351Z,78.43
2023-11-25T19:36:36.793Z,78.64
2023-11-25T19:39:13.402Z,78.40
2023-11-25T19:42:03.723Z,78.24
2023-11-25T19:44:46.912Z,78.15
2023-11-25T19:47:41.857Z,78.12
2023-11-25T19:50:29.717Z,78.18
2023-11-25T19:53:13.111Z,78.19
2023-11-25T19:56:01.845Z,78.22
2023-11-25T19:58:45.992Z,78.11
2023-11-25T20:01:34.700Z,78.15
2023-11-25T20:04:09.838Z,77.99
2023-11-25T20:06:57.575Z,77.99
2023-11-25T20:09:32.905Z,78.03
2023-11-25T20:12:21.457Z,78.04
2023-11-25T20:15:05.671Z,78.14
2023-11-25T20:17:46.992Z,78.05
2023-11-25T20:20:38.103Z,78.15
2023-11-25T20:23:14.838Z,78.19
2023-11-25T20:26:02.597Z,78.11
2023-11-25T20:28:37.064Z,78.14
2023-11-25T20:31:24.567Z,77.88
2023-11-25T20:33:59.711Z,77.98
2023-11-25T20:36:48.020Z,78.06
2023-11-25T20:39:43.777Z,78.09
2023-11-25T20:42:31.845Z,78.08
2023-11-25T20:45:06.857Z,78.13
2023-11-25T20:47:54.560Z,78.13
2023-11-25T20:50:30.206Z,78.24
2023-11-25T20:53:26.000Z,78.43
2023-11-25T20:56:21.740Z,78.35
2023-11-25T20:59:10.653Z,78.36
2023-11-25T21:01:45.989Z,78.30
2023-11-25T21:04:36.997Z,78.40
2023-11-25T21:07:12.761Z,78.51
2023-11-25T21:10:00.567Z,78.60
2023-11-25T21:12:42.713Z,78.67
2023-11-25T21:15:37.308Z,78.66
2023-11-25T21:18:12.737Z,78.78
2023-11-25T21:21:01.544Z,78.87
2023-11-25T21:23:43.563Z,78.90
2023-11-25T21:26:42.246Z,78.69
2023-11-25T21:29:16.804Z,78.80
2023-11-25T21:32:05.662Z,78.82
2023-11-25T21:34:47.664Z,78.86
2023-11-25T21:37:35.554Z,78.98
2023-11-25T21:40:23.538Z,79.00
2023-11-25T21:43:05.526Z,78.97
2023-11-25T21:46:00.583Z,78.79
2023-11-25T21:48:49.670Z,78.75
2023-11-25T21:51:31.529Z,78.76
2023-11-25T21:54:34.052Z,78.65
2023-11-25T21:57:21.538Z,78.37
2023-11-25T21:59:56.672Z,78.53
2023-11-25T22:02:44.831Z,78.26
2023-11-25T22:05:26.544Z,78.08
2023-11-25T22:08:14.550Z,78.11
2023-11-25T22:10:49.829Z,78.16
2023-11-25T22:13:38.551Z,78.26
2023-11-25T22:16:14.317Z,78.18
2023-11-25T22:19:03.296Z,78.32
2023-11-25T22:21:40.568Z,78.30
2023-11-25T22:24:31.571Z,78.36
2023-11-25T22:27:24.683Z,78.40
2023-11-25T22:30:19.691Z,78.45
2023-11-25T22:32:54.855Z,78.66
2023-11-25T22:35:50.618Z,78.54
2023-11-25T22:38:39.249Z,78.57
2023-11-25T22:41:29.238Z,78.60
2023-11-25T22:44:05.127Z,78.58
2023-11-25T22:46:53.575Z,78.74
2023-11-25T22:49:35.517Z,78.65
2023-11-25T22:52:30.531Z,78.81
2023-11-25T22:55:18.530Z,78.78
2023-11-25T22:58:01.281Z,78.87
2023-11-25T23:00:59.552Z,79.00
2023-11-25T23:03:34.989Z,78.95
2023-11-25T23:06:22.509Z,79.07
2023-11-25T23:08:59.065Z,79.17
2023-11-25T23:11:47.011Z,79.17
2023-11-25T23:14:29.265Z,79.41
2023-11-25T23:17:13.600Z,79.38
2023-11-25T23:19:54.656Z,79.56
2023-11-25T23:22:35.512Z,79.58
2023-11-25T23:25:23.522Z,79.67
2023-11-25T23:27:58.609Z,79.77
2023-11-25T23:30:46.547Z,79.86
2023-11-25T23:33:20.994Z,79.86
2023-11-25T23:36:08.515Z,80.09
2023-11-25T23:38:42.899Z,80.37
2023-11-25T23:41:30.495Z,80.27
2023-11-25T23:44:05.339Z,80.39
2023-11-25T23:46:53.525Z,80.43
2023-11-25T23:49:34.514Z,80.58
2023-11-25T23:52:29.516Z,80.89
2023-11-25T23:55:17.495Z,81.07
2023-11-25T23:57:52.662Z,81.20
